createdAt,value
2018-11-07T00:00:34.231Z,0.00
2018-11-07T00:01:34.180Z,0.00
2018-11-07T00:02:34.118Z,0.00
2018-11-07T00:03:34.062Z,0.00
2018-11-07T00:04:34.005Z,0.00
2018-11-07T00:05:33.956Z,0.00
2018-11-07T00:06:33.896Z,0.00
2018-11-07T00:07:33.836Z,0.00
2018-11-07T00:08:33.876Z,0.00
2018-11-07T00:09:33.727Z,0.00
2018-11-07T00:10:33.673Z,0.00
2018-11-07T00:11:33.611Z,0.00
2018-11-07T00:12:33.555Z,0.00
2018-11-07T00:13:33.502Z,0.00
2018-11-07T00:14:33.440Z,0.00
2018-11-07T00:15:33.384Z,0.00
2018-11-07T00:16:33.328Z,0.00
2018-11-07T00:17:33.273Z,0.00
2018-11-07T00:18:33.219Z,0.00
2018-11-07T00:19:33.222Z,0.00
2018-11-07T00:20:33.103Z,0.00
2018-11-07T00:21:33.048Z,0.00
2018-11-07T00:22:32.994Z,0.00
2018-11-07T00:23:32.938Z,0.00
2018-11-07T00:24:32.878Z,0.00
2018-11-07T00:25:32.828Z,0.00
2018-11-07T00:26:32.889Z,0.00
2018-11-07T00:27:32.709Z,0.00
2018-11-07T00:28:32.653Z,0.00
2018-11-07T00:29:32.594Z,0.00
2018-11-07T00:30:32.542Z,0.00
2018-11-07T00:31:32.487Z,0.00
2018-11-07T00:32:32.426Z,0.00
2018-11-07T00:33:32.372Z,0.00
2018-11-07T00:34:32.312Z,0.00
2018-11-07T00:35:32.257Z,0.00
2018-11-07T00:36:32.204Z,0.00
2018-11-07T00:37:32.142Z,0.00
2018-11-07T00:38:32.086Z,0.00
2018-11-07T00:39:32.034Z,0.00
2018-11-07T00:40:31.975Z,0.00
2018-11-07T00:41:31.916Z,0.00
2018-11-07T00:42:31.863Z,0.00
2018-11-07T00:43:31.809Z,0.00
2018-11-07T00:44:31.748Z,0.00
2018-11-07T00:45:31.692Z,0.00
2018-11-07T00:46:31.636Z,0.00
2018-11-07T00:47:31.579Z,0.00
2018-11-07T00:48:31.523Z,0.00
2018-11-07T00:49:31.466Z,0.00
2018-11-07T00:50:31.408Z,0.00
2018-11-07T00:51:31.356Z,0.00
2018-11-07T00:52:31.298Z,0.00
2018-11-07T00:53:31.250Z,0.00
2018-11-07T00:54:31.193Z,0.00
2018-11-07T00:55:31.127Z,0.00
2018-11-07T00:56:31.073Z,0.00
2018-11-07T00:57:31.015Z,0.00
2018-11-07T00:58:30.963Z,0.00
2018-11-07T00:59:30.900Z,0.00
2018-11-07T01:00:30.849Z,0.00
2018-11-07T01:01:30.787Z,0.00
2018-11-07T01:02:30.733Z,0.00
2018-11-07T01:03:30.677Z,0.00
2018-11-07T01:04:30.618Z,0.00
2018-11-07T01:05:30.560Z,0.00
2018-11-07T01:06:30.505Z,0.00
2018-11-07T01:07:30.447Z,0.00
2018-11-07T01:08:30.392Z,0.00
2018-11-07T01:09:30.394Z,0.00
2018-11-07T01:10:30.279Z,0.00
2018-11-07T01:11:30.227Z,0.00
2018-11-07T01:12:30.167Z,0.00
2018-11-07T01:13:30.111Z,0.00
2018-11-07T01:14:30.052Z,0.00
2018-11-07T01:15:30.001Z,0.00
2018-11-07T01:16:29.981Z,0.00
2018-11-07T01:17:29.883Z,0.00
2018-11-07T01:18:29.827Z,0.00
2018-11-07T01:19:29.775Z,0.00
2018-11-07T01:20:29.716Z,0.00
2018-11-07T01:21:29.658Z,0.00
2018-11-07T01:22:29.604Z,0.00
2018-11-07T01:23:29.545Z,0.00
2018-11-07T01:24:29.489Z,0.00
2018-11-07T01:25:29.432Z,0.00
2018-11-07T01:26:29.375Z,0.00
2018-11-07T01:27:29.320Z,0.00
2018-11-07T01:28:29.266Z,0.00
2018-11-07T01:29:29.205Z,0.00
2018-11-07T01:30:29.149Z,0.00
2018-11-07T01:31:29.094Z,0.00
2018-11-07T01:32:29.036Z,0.00
2018-11-07T01:33:28.981Z,0.00
2018-11-07T01:34:28.926Z,0.00
2018-11-07T01:35:28.867Z,0.00
2018-11-07T01:36:28.810Z,0.00
2018-11-07T01:37:28.754Z,0.00
2018-11-07T01:38:28.697Z,0.00
2018-11-07T01:39:28.641Z,0.00
2018-11-07T01:40:28.587Z,0.00
2018-11-07T01:41:28.526Z,0.00
2018-11-07T01:42:28.471Z,0.00
2018-11-07T01:43:28.415Z,0.00
2018-11-07T01:44:28.360Z,0.00
2018-11-07T01:45:28.300Z,0.00
2018-11-07T01:46:28.244Z,0.00
2018-11-07T01:47:28.190Z,0.00
2018-11-07T01:48:28.132Z,0.00
2018-11-07T01:49:28.074Z,0.00
2018-11-07T01:50:28.019Z,0.00
2018-11-07T01:51:27.962Z,0.00
2018-11-07T01:52:27.909Z,0.00
2018-11-07T01:53:27.849Z,0.00
2018-11-07T01:54:27.791Z,0.00
2018-11-07T01:55:27.738Z,0.00
2018-11-07T01:56:27.679Z,0.00
2018-11-07T01:57:27.622Z,0.00
2018-11-07T01:58:27.567Z,0.00
2018-11-07T01:59:27.510Z,0.00
2018-11-07T02:00:27.456Z,0.00
2018-11-07T02:01:27.397Z,0.00
2018-11-07T02:02:27.340Z,0.00
2018-11-07T02:03:27.285Z,0.00
2018-11-07T02:04:27.227Z,0.00
2018-11-07T02:05:27.169Z,0.00
2018-11-07T02:06:27.116Z,0.00
2018-11-07T02:07:27.058Z,0.00
2018-11-07T02:08:27.003Z,0.00
2018-11-07T02:09:26.943Z,0.00
2018-11-07T02:10:26.887Z,0.00
2018-11-07T02:11:26.831Z,0.00
2018-11-07T02:12:26.776Z,0.00
2018-11-07T02:13:26.719Z,0.00
2018-11-07T02:14:26.660Z,0.00
2018-11-07T02:15:26.604Z,0.00
2018-11-07T02:16:26.550Z,0.00
2018-11-07T02:17:26.490Z,0.00
2018-11-07T02:18:26.434Z,0.00
2018-11-07T02:19:26.377Z,0.00
2018-11-07T02:20:26.322Z,0.00
2018-11-07T02:21:26.265Z,0.00
2018-11-07T02:22:26.208Z,0.00
2018-11-07T02:23:26.153Z,0.00
2018-11-07T02:24:26.095Z,0.00
2018-11-07T02:25:26.037Z,0.00
2018-11-07T02:26:26.009Z,0.00
2018-11-07T02:27:25.926Z,0.00
2018-11-07T02:28:25.869Z,0.00
2018-11-07T02:29:25.812Z,0.00
2018-11-07T02:30:25.756Z,0.00
2018-11-07T02:31:25.699Z,0.00
2018-11-07T02:32:25.643Z,0.00
2018-11-07T02:33:25.586Z,0.00
2018-11-07T02:34:25.530Z,0.00
2018-11-07T02:35:25.472Z,0.00
2018-11-07T02:36:25.417Z,0.00
2018-11-07T02:37:25.358Z,0.00
2018-11-07T02:38:25.303Z,0.00
2018-11-07T02:39:25.252Z,0.00
2018-11-07T02:40:25.189Z,0.00
2018-11-07T02:41:25.131Z,0.00
2018-11-07T02:42:25.075Z,0.00
2018-11-07T02:43:25.019Z,0.00
2018-11-07T02:44:24.965Z,0.00
2018-11-07T02:45:24.907Z,0.00
2018-11-07T02:46:24.849Z,0.00
2018-11-07T02:47:24.792Z,0.00
2018-11-07T02:48:24.738Z,0.00
2018-11-07T02:49:24.678Z,0.00
2018-11-07T02:50:24.625Z,0.00
2018-11-07T02:51:24.567Z,0.00
2018-11-07T02:52:24.510Z,0.00
2018-11-07T02:53:24.490Z,0.00
2018-11-07T02:54:24.398Z,0.00
2018-11-07T02:55:24.340Z,0.00
2018-11-07T02:56:24.288Z,0.00
2018-11-07T02:57:24.225Z,0.00
2018-11-07T02:58:24.173Z,0.00
2018-11-07T02:59:24.115Z,0.00
2018-11-07T03:00:24.056Z,0.00
2018-11-07T03:01:24.059Z,0.00
2018-11-07T03:02:23.943Z,0.00
2018-11-07T03:03:23.885Z,0.00
2018-11-07T03:04:23.832Z,0.00
2018-11-07T03:05:23.773Z,0.00
2018-11-07T03:06:23.719Z,0.00
2018-11-07T03:07:23.661Z,0.00
2018-11-07T03:08:23.611Z,0.00
2018-11-07T03:09:23.546Z,0.00
2018-11-07T03:10:23.537Z,0.00
2018-11-07T03:11:23.432Z,0.00
2018-11-07T03:12:23.377Z,0.00
2018-11-07T03:13:23.320Z,0.00
2018-11-07T03:14:23.265Z,0.00
2018-11-07T03:15:23.210Z,0.00
2018-11-07T03:16:23.150Z,0.00
2018-11-07T03:17:23.092Z,0.00
2018-11-07T03:18:23.036Z,0.00
2018-11-07T03:19:22.980Z,0.00
2018-11-07T03:20:22.924Z,0.00
2018-11-07T03:21:22.865Z,0.00
2018-11-07T03:22:22.812Z,0.00
2018-11-07T03:23:22.752Z,0.00
2018-11-07T03:24:22.697Z,0.00
2018-11-07T03:25:22.639Z,0.00
2018-11-07T03:26:22.584Z,0.00
2018-11-07T03:27:22.527Z,0.00
2018-11-07T03:28:22.473Z,0.00
2018-11-07T03:29:22.415Z,0.00
2018-11-07T03:30:22.355Z,0.00
2018-11-07T03:31:22.300Z,0.00
2018-11-07T03:32:22.250Z,0.00
2018-11-07T03:33:22.185Z,0.00
2018-11-07T03:34:22.130Z,0.00
2018-11-07T03:35:22.072Z,0.00
2018-11-07T03:36:22.018Z,0.00
2018-11-07T03:37:21.958Z,0.00
2018-11-07T03:38:21.901Z,0.00
2018-11-07T03:39:21.845Z,0.00
2018-11-07T03:40:21.795Z,0.00
2018-11-07T03:41:21.732Z,0.00
2018-11-07T03:42:21.675Z,0.00
2018-11-07T03:43:21.621Z,0.00
2018-11-07T03:44:21.563Z,0.00
2018-11-07T03:45:21.505Z,0.00
2018-11-07T03:46:21.451Z,0.00
2018-11-07T03:47:21.392Z,0.00
2018-11-07T03:48:21.339Z,0.00
2018-11-07T03:49:21.278Z,0.00
2018-11-07T03:50:21.227Z,0.00
2018-11-07T03:51:21.166Z,0.00
2018-11-07T03:52:21.108Z,0.00
2018-11-07T03:53:21.127Z,0.00
2018-11-07T03:54:20.997Z,0.00
2018-11-07T03:55:20.938Z,0.00
2018-11-07T03:56:20.883Z,0.00
2018-11-07T03:57:20.825Z,0.00
2018-11-07T03:58:20.773Z,0.00
2018-11-07T03:59:20.716Z,0.00
2018-11-07T04:00:20.655Z,0.00
2018-11-07T04:01:20.597Z,0.00
2018-11-07T04:02:20.546Z,0.00
2018-11-07T04:03:20.489Z,0.00
2018-11-07T04:04:20.432Z,0.00
2018-11-07T04:05:20.369Z,0.00
2018-11-07T04:06:20.320Z,0.00
2018-11-07T04:07:20.262Z,0.00
2018-11-07T04:08:20.210Z,0.00
2018-11-07T04:09:20.153Z,0.00
2018-11-07T04:10:20.091Z,0.00
2018-11-07T04:11:20.037Z,0.00
2018-11-07T04:12:19.978Z,0.00
2018-11-07T04:13:19.928Z,0.00
2018-11-07T04:14:19.864Z,0.00
2018-11-07T04:15:19.808Z,0.00
2018-11-07T04:16:19.752Z,0.00
2018-11-07T04:17:20.646Z,0.00
2018-11-07T04:18:19.636Z,0.00
2018-11-07T04:19:19.582Z,0.00
2018-11-07T04:20:19.519Z,0.00
2018-11-07T04:21:19.465Z,0.00
2018-11-07T04:22:19.411Z,0.00
2018-11-07T04:23:19.354Z,0.00
2018-11-07T04:24:19.297Z,0.00
2018-11-07T04:25:19.241Z,0.00
2018-11-07T04:26:19.188Z,0.00
2018-11-07T04:27:19.135Z,0.00
2018-11-07T04:28:19.069Z,0.00
2018-11-07T04:29:19.014Z,0.00
2018-11-07T04:30:18.959Z,0.00
2018-11-07T04:31:18.897Z,0.00
2018-11-07T04:32:18.841Z,0.00
2018-11-07T04:33:18.785Z,0.00
2018-11-07T04:34:18.727Z,0.00
2018-11-07T04:35:18.671Z,0.00
2018-11-07T04:36:18.616Z,0.00
2018-11-07T04:37:18.556Z,0.00
2018-11-07T04:38:18.502Z,0.00
2018-11-07T04:39:18.500Z,0.00
2018-11-07T04:40:18.386Z,0.00
2018-11-07T04:41:18.330Z,0.00
2018-11-07T04:42:18.275Z,0.00
2018-11-07T04:43:18.218Z,0.00
2018-11-07T04:44:18.160Z,0.00
2018-11-07T04:45:18.102Z,0.00
2018-11-07T04:46:18.045Z,0.00
2018-11-07T04:47:17.991Z,0.00
2018-11-07T04:48:17.939Z,0.00
2018-11-07T04:49:17.873Z,0.00
2018-11-07T04:50:17.822Z,0.00
2018-11-07T04:51:17.760Z,0.00
2018-11-07T04:52:17.706Z,0.00
2018-11-07T04:53:17.646Z,0.00
2018-11-07T04:54:17.594Z,0.00
2018-11-07T04:55:17.536Z,0.00
2018-11-07T04:56:17.477Z,0.00
2018-11-07T04:57:17.421Z,0.00
2018-11-07T04:58:17.363Z,0.00
2018-11-07T04:59:17.305Z,0.00
2018-11-07T05:00:17.304Z,0.00
2018-11-07T05:01:17.195Z,0.00
2018-11-07T05:02:17.136Z,0.00
2018-11-07T05:03:17.078Z,0.00
2018-11-07T05:04:17.022Z,0.00
2018-11-07T05:05:16.967Z,0.00
2018-11-07T05:06:16.910Z,0.00
2018-11-07T05:07:16.855Z,0.00
2018-11-07T05:08:16.795Z,0.00
2018-11-07T05:09:16.737Z,0.00
2018-11-07T05:10:16.680Z,0.00
2018-11-07T05:11:16.626Z,0.00
2018-11-07T05:12:16.567Z,0.00
2018-11-07T05:13:16.512Z,0.00
2018-11-07T05:14:16.455Z,0.00
2018-11-07T05:15:16.397Z,0.00
2018-11-07T05:16:16.340Z,0.00
2018-11-07T05:17:16.281Z,0.00
2018-11-07T05:18:16.224Z,0.00
2018-11-07T05:19:16.167Z,0.00
2018-11-07T05:20:16.113Z,0.00
2018-11-07T05:21:16.057Z,0.00
2018-11-07T05:22:15.998Z,0.00
2018-11-07T05:23:15.952Z,0.00
2018-11-07T05:24:15.884Z,0.00
2018-11-07T05:25:15.828Z,0.00
2018-11-07T05:26:15.863Z,0.00
2018-11-07T05:27:15.719Z,0.00
2018-11-07T05:28:15.657Z,0.00
2018-11-07T05:29:15.630Z,0.00
2018-11-07T05:30:15.544Z,0.00
2018-11-07T05:31:15.484Z,0.00
2018-11-07T05:32:15.427Z,0.00
2018-11-07T05:33:15.384Z,0.00
2018-11-07T05:34:15.314Z,0.00
2018-11-07T05:35:15.259Z,0.00
2018-11-07T05:36:15.200Z,0.00
2018-11-07T05:37:15.143Z,0.00
2018-11-07T05:38:15.085Z,0.00
2018-11-07T05:39:15.030Z,0.00
2018-11-07T05:40:14.978Z,0.00
2018-11-07T05:41:14.994Z,0.00
2018-11-07T05:42:14.860Z,0.00
2018-11-07T05:43:14.805Z,0.00
2018-11-07T05:44:14.745Z,0.00
2018-11-07T05:45:14.689Z,0.00
2018-11-07T05:46:14.635Z,0.00
2018-11-07T05:47:14.575Z,0.00
2018-11-07T05:48:14.517Z,0.00
2018-11-07T05:49:14.523Z,0.00
2018-11-07T05:50:14.401Z,0.00
2018-11-07T05:51:14.346Z,0.00
2018-11-07T05:52:14.285Z,0.00
2018-11-07T05:53:14.240Z,0.00
2018-11-07T05:54:14.174Z,0.00
2018-11-07T05:55:14.120Z,0.00
2018-11-07T05:56:14.062Z,0.00
2018-11-07T05:57:14.000Z,0.00
2018-11-07T05:58:13.946Z,0.00
2018-11-07T05:59:13.896Z,0.00
2018-11-07T06:00:13.832Z,0.00
2018-11-07T06:01:13.774Z,0.00
2018-11-07T06:02:13.717Z,0.00
2018-11-07T06:03:13.662Z,0.00
2018-11-07T06:04:13.606Z,0.00
2018-11-07T06:05:13.546Z,0.00
2018-11-07T06:06:13.491Z,0.00
2018-11-07T06:07:13.469Z,0.00
2018-11-07T06:08:13.377Z,0.00
2018-11-07T06:09:13.319Z,0.00
2018-11-07T06:10:13.261Z,0.00
2018-11-07T06:11:13.205Z,0.00
2018-11-07T06:12:13.147Z,0.00
2018-11-07T06:13:13.091Z,0.00
2018-11-07T06:14:13.038Z,0.00
2018-11-07T06:15:12.978Z,0.00
2018-11-07T06:16:12.981Z,0.00
2018-11-07T06:17:12.862Z,0.00
2018-11-07T06:18:12.811Z,0.00
2018-11-07T06:19:12.750Z,0.00
2018-11-07T06:20:12.697Z,0.00
2018-11-07T06:21:12.635Z,0.00
2018-11-07T06:22:12.578Z,0.00
2018-11-07T06:23:12.521Z,0.00
2018-11-07T06:24:12.482Z,0.00
2018-11-07T06:25:12.408Z,0.00
2018-11-07T06:26:12.349Z,0.00
2018-11-07T06:27:12.294Z,0.00
2018-11-07T06:28:12.235Z,0.00
2018-11-07T06:29:12.186Z,0.00
2018-11-07T06:30:12.125Z,0.00
2018-11-07T06:31:12.064Z,0.00
2018-11-07T06:32:12.009Z,0.00
2018-11-07T06:33:11.950Z,0.00
2018-11-07T06:34:11.927Z,0.00
2018-11-07T06:35:11.839Z,0.00
2018-11-07T06:36:11.780Z,0.00
2018-11-07T06:37:11.721Z,0.00
2018-11-07T06:38:11.665Z,0.00
2018-11-07T06:39:11.607Z,0.00
2018-11-07T06:40:11.554Z,0.00
2018-11-07T06:41:11.498Z,0.00
2018-11-07T06:42:11.489Z,0.00
2018-11-07T06:43:11.379Z,0.00
2018-11-07T06:44:11.322Z,0.00
2018-11-07T06:45:11.268Z,0.00
2018-11-07T06:46:11.213Z,0.00
2018-11-07T06:47:11.155Z,0.00
2018-11-07T06:48:11.092Z,0.00
2018-11-07T06:49:11.041Z,0.00
2018-11-07T06:50:10.980Z,0.00
2018-11-07T06:51:10.921Z,0.00
2018-11-07T06:52:10.866Z,0.00
2018-11-07T06:53:10.815Z,0.00
2018-11-07T06:54:10.752Z,0.00
2018-11-07T06:55:10.716Z,0.00
2018-11-07T06:56:10.638Z,0.00
2018-11-07T06:57:10.578Z,0.00
2018-11-07T06:58:10.522Z,0.00
2018-11-07T06:59:10.467Z,0.00
2018-11-07T07:00:10.410Z,0.00
2018-11-07T07:01:10.356Z,0.00
2018-11-07T07:02:10.300Z,0.00
2018-11-07T07:03:10.239Z,0.00
2018-11-07T07:04:10.182Z,0.00
2018-11-07T07:05:10.125Z,0.00
2018-11-07T07:06:10.065Z,0.00
2018-11-07T07:07:10.009Z,0.00
2018-11-07T07:08:09.951Z,0.00
2018-11-07T07:09:09.893Z,0.00
2018-11-07T07:10:09.837Z,0.00
2018-11-07T07:11:09.780Z,0.00
2018-11-07T07:12:09.727Z,0.00
2018-11-07T07:13:09.664Z,0.00
2018-11-07T07:14:09.609Z,0.00
2018-11-07T07:15:09.564Z,0.00
2018-11-07T07:16:09.501Z,0.00
2018-11-07T07:17:09.445Z,0.00
2018-11-07T07:18:09.524Z,0.00
2018-11-07T07:19:09.322Z,0.00
2018-11-07T07:20:09.276Z,0.00
2018-11-07T07:21:09.207Z,0.00
2018-11-07T07:22:09.150Z,0.00
2018-11-07T07:23:09.095Z,0.00
2018-11-07T07:24:09.038Z,0.00
2018-11-07T07:25:08.978Z,0.00
2018-11-07T07:26:08.925Z,0.00
2018-11-07T07:27:08.873Z,0.00
2018-11-07T07:28:08.807Z,4.00
2018-11-07T07:29:08.757Z,0.00
2018-11-07T07:30:08.713Z,4.00
2018-11-07T07:31:08.637Z,4.00
2018-11-07T07:32:08.580Z,4.00
2018-11-07T07:33:08.576Z,4.00
2018-11-07T07:34:08.463Z,4.00
2018-11-07T07:35:08.413Z,4.00
2018-11-07T07:36:08.350Z,4.00
2018-11-07T07:37:08.296Z,4.00
2018-11-07T07:38:08.237Z,4.00
2018-11-07T07:39:08.181Z,8.00
2018-11-07T07:40:08.123Z,8.00
2018-11-07T07:41:08.068Z,4.00
2018-11-07T07:42:08.010Z,4.00
2018-11-07T07:43:07.950Z,8.00
2018-11-07T07:44:07.893Z,8.00
2018-11-07T07:45:07.839Z,4.00
2018-11-07T07:46:07.779Z,4.00
2018-11-07T07:47:07.722Z,4.00
2018-11-07T07:48:07.670Z,4.00
2018-11-07T07:49:07.620Z,4.00
2018-11-07T07:50:07.551Z,8.00
2018-11-07T07:51:07.493Z,4.00
2018-11-07T07:52:07.435Z,4.00
2018-11-07T07:53:07.448Z,8.00
2018-11-07T07:54:07.323Z,8.00
2018-11-07T07:55:07.264Z,8.00
2018-11-07T07:56:07.206Z,8.00
2018-11-07T07:57:07.151Z,4.00
2018-11-07T07:58:07.093Z,8.00
2018-11-07T07:59:07.035Z,8.00
2018-11-07T08:00:06.989Z,8.00
2018-11-07T08:01:06.920Z,12.00
2018-11-07T08:02:06.860Z,12.00
2018-11-07T08:03:06.808Z,12.00
2018-11-07T08:04:06.744Z,12.00
2018-11-07T08:05:06.689Z,12.00
2018-11-07T08:06:06.631Z,12.00
2018-11-07T08:07:06.603Z,12.00
2018-11-07T08:08:06.518Z,12.00
2018-11-07T08:09:06.462Z,12.00
2018-11-07T08:10:06.400Z,12.00
2018-11-07T08:11:06.346Z,12.00
2018-11-07T08:12:06.286Z,12.00
2018-11-07T08:13:06.228Z,12.00
2018-11-07T08:14:06.240Z,12.00
2018-11-07T08:15:06.114Z,12.00
2018-11-07T08:16:06.057Z,12.00
2018-11-07T08:17:06.001Z,12.00
2018-11-07T08:18:05.942Z,12.00
2018-11-07T08:19:05.885Z,12.00
2018-11-07T08:20:05.828Z,12.00
2018-11-07T08:21:05.820Z,12.00
2018-11-07T08:22:05.713Z,12.00
2018-11-07T08:23:05.656Z,12.00
2018-11-07T08:24:05.600Z,12.00
2018-11-07T08:25:05.552Z,8.00
2018-11-07T08:26:05.484Z,8.00
2018-11-07T08:27:05.427Z,12.00
2018-11-07T08:28:05.370Z,12.00
2018-11-07T08:29:05.358Z,8.00
2018-11-07T08:30:05.258Z,8.00
2018-11-07T08:31:05.198Z,8.00
2018-11-07T08:32:05.148Z,8.00
2018-11-07T08:33:05.086Z,12.00
2018-11-07T08:34:05.032Z,12.00
2018-11-07T08:35:04.969Z,12.00
2018-11-07T08:36:04.912Z,12.00
2018-11-07T08:37:04.853Z,12.00
2018-11-07T08:38:04.796Z,12.00
2018-11-07T08:39:04.739Z,12.00
2018-11-07T08:40:04.683Z,12.00
2018-11-07T08:41:04.639Z,16.00
2018-11-07T08:42:04.570Z,12.00
2018-11-07T08:43:04.511Z,12.00
2018-11-07T08:44:04.454Z,16.00
2018-11-07T08:45:04.396Z,16.00
2018-11-07T08:46:04.340Z,16.00
2018-11-07T08:47:04.282Z,12.00
2018-11-07T08:48:04.258Z,12.00
2018-11-07T08:49:04.180Z,16.00
2018-11-07T08:50:04.112Z,16.00
2018-11-07T08:51:04.054Z,16.00
2018-11-07T08:52:03.997Z,16.00
2018-11-07T08:53:03.941Z,16.00
2018-11-07T08:54:03.881Z,16.00
2018-11-07T08:55:03.888Z,16.00
2018-11-07T08:56:03.776Z,16.00
2018-11-07T08:57:03.712Z,16.00
2018-11-07T08:58:03.652Z,16.00
2018-11-07T08:59:03.596Z,16.00
2018-11-07T09:00:03.537Z,16.00
2018-11-07T09:01:03.483Z,16.00
2018-11-07T09:02:03.448Z,16.00
2018-11-07T09:03:03.370Z,16.00
2018-11-07T09:04:03.315Z,16.00
2018-11-07T09:05:03.252Z,16.00
2018-11-07T09:06:03.198Z,16.00
2018-11-07T09:07:03.138Z,16.00
2018-11-07T09:08:03.080Z,16.00
2018-11-07T09:09:03.028Z,16.00
2018-11-07T09:10:02.968Z,16.00
2018-11-07T09:11:02.909Z,16.00
2018-11-07T09:12:02.882Z,16.00
2018-11-07T09:13:02.797Z,16.00
2018-11-07T09:14:02.738Z,16.00
2018-11-07T09:15:02.682Z,16.00
2018-11-07T09:16:02.623Z,20.00
2018-11-07T09:17:02.565Z,16.00
2018-11-07T09:18:02.508Z,20.00
2018-11-07T09:19:02.450Z,20.00
2018-11-07T09:20:02.446Z,20.00
2018-11-07T09:21:02.336Z,20.00
2018-11-07T09:22:02.281Z,24.00
2018-11-07T09:23:02.220Z,20.00
2018-11-07T09:24:02.165Z,24.00
2018-11-07T09:25:02.111Z,24.00
2018-11-07T09:26:02.056Z,24.00
2018-11-07T09:27:01.997Z,28.00
2018-11-07T09:28:01.937Z,24.00
2018-11-07T09:29:01.888Z,24.00
2018-11-07T09:30:01.824Z,28.00
2018-11-07T09:31:01.767Z,28.00
2018-11-07T09:32:01.707Z,28.00
2018-11-07T09:33:01.649Z,28.00
2018-11-07T09:34:01.593Z,32.00
2018-11-07T09:35:01.538Z,28.00
2018-11-07T09:36:01.484Z,32.00
2018-11-07T09:37:01.423Z,32.00
2018-11-07T09:38:01.364Z,32.00
2018-11-07T09:39:01.307Z,32.00
2018-11-07T09:40:01.264Z,28.00
2018-11-07T09:41:01.192Z,32.00
2018-11-07T09:42:01.136Z,32.00
2018-11-07T09:43:01.078Z,32.00
2018-11-07T09:44:01.021Z,32.00
2018-11-07T09:45:00.964Z,36.00
2018-11-07T09:46:00.911Z,36.00
2018-11-07T09:47:00.850Z,40.00
2018-11-07T09:48:00.800Z,36.00
2018-11-07T09:49:00.737Z,36.00
2018-11-07T09:50:00.677Z,40.00
2018-11-07T09:51:00.621Z,36.00
2018-11-07T09:52:00.576Z,36.00
2018-11-07T09:53:00.506Z,36.00
2018-11-07T09:54:00.635Z,36.00
2018-11-07T09:55:00.400Z,36.00
2018-11-07T09:56:00.336Z,32.00
2018-11-07T09:57:00.278Z,32.00
2018-11-07T09:58:00.225Z,32.00
2018-11-07T09:59:00.168Z,32.00
2018-11-07T10:00:00.110Z,32.00
2018-11-07T10:01:00.057Z,32.00
2018-11-07T10:01:59.995Z,36.00
2018-11-07T10:02:59.944Z,36.00
2018-11-07T10:03:59.881Z,36.00
2018-11-07T10:04:59.824Z,36.00
2018-11-07T10:05:59.764Z,36.00
2018-11-07T10:06:59.712Z,40.00
2018-11-07T10:07:59.665Z,40.00
2018-11-07T10:08:59.594Z,40.00
2018-11-07T10:09:59.538Z,36.00
2018-11-07T10:10:59.479Z,36.00
2018-11-07T10:11:59.434Z,36.00
2018-11-07T10:12:59.365Z,40.00
2018-11-07T10:13:59.307Z,40.00
2018-11-07T10:14:59.252Z,40.00
2018-11-07T10:15:59.195Z,40.00
2018-11-07T10:16:59.136Z,40.00
2018-11-07T10:17:59.079Z,40.00
2018-11-07T10:18:59.026Z,40.00
2018-11-07T10:19:58.965Z,36.00
2018-11-07T10:20:58.907Z,36.00
2018-11-07T10:21:58.851Z,36.00
2018-11-07T10:22:58.794Z,36.00
2018-11-07T10:23:58.740Z,36.00
2018-11-07T10:24:58.680Z,36.00
2018-11-07T10:25:58.627Z,36.00
2018-11-07T10:26:58.639Z,36.00
2018-11-07T10:27:58.960Z,36.00
2018-11-07T10:28:58.689Z,36.00
2018-11-07T10:29:58.779Z,32.00
2018-11-07T10:30:58.339Z,36.00
2018-11-07T10:31:58.281Z,36.00
2018-11-07T10:32:58.224Z,36.00
2018-11-07T10:33:58.166Z,36.00
2018-11-07T10:34:58.112Z,36.00
2018-11-07T10:35:58.056Z,32.00
2018-11-07T10:36:57.998Z,32.00
2018-11-07T10:37:58.131Z,36.00
2018-11-07T10:38:57.960Z,36.00
2018-11-07T10:39:57.881Z,32.00
2018-11-07T10:40:57.769Z,36.00
2018-11-07T10:41:57.712Z,36.00
2018-11-07T10:42:57.655Z,40.00
2018-11-07T10:43:57.611Z,36.00
2018-11-07T10:44:57.541Z,36.00
2018-11-07T10:45:57.528Z,36.00
2018-11-07T10:46:58.292Z,32.00
2018-11-07T10:47:57.371Z,32.00
2018-11-07T10:48:57.366Z,32.00
2018-11-07T10:49:57.257Z,32.00
2018-11-07T10:50:57.199Z,36.00
2018-11-07T10:51:57.284Z,36.00
2018-11-07T10:52:57.085Z,36.00
2018-11-07T10:53:57.028Z,32.00
2018-11-07T10:54:56.973Z,32.00
2018-11-07T10:55:56.914Z,32.00
2018-11-07T10:56:56.857Z,32.00
2018-11-07T10:57:56.801Z,32.00
2018-11-07T10:58:56.744Z,32.00
2018-11-07T10:59:56.686Z,32.00
2018-11-07T11:00:56.631Z,32.00
2018-11-07T11:01:56.573Z,28.00
2018-11-07T11:02:56.517Z,32.00
2018-11-07T11:03:56.459Z,32.00
2018-11-07T11:04:56.431Z,36.00
2018-11-07T11:05:56.345Z,32.00
2018-11-07T11:06:56.290Z,36.00
2018-11-07T11:07:56.233Z,36.00
2018-11-07T11:08:56.190Z,36.00
2018-11-07T11:09:56.118Z,36.00
2018-11-07T11:10:56.061Z,32.00
2018-11-07T11:11:56.007Z,32.00
2018-11-07T11:12:55.947Z,32.00
2018-11-07T11:13:55.891Z,36.00
2018-11-07T11:14:55.834Z,32.00
2018-11-07T11:15:55.778Z,32.00
2018-11-07T11:16:55.729Z,36.00
2018-11-07T11:17:55.663Z,32.00
2018-11-07T11:18:55.607Z,28.00
2018-11-07T11:19:55.551Z,32.00
2018-11-07T11:20:55.492Z,32.00
2018-11-07T11:21:55.435Z,28.00
2018-11-07T11:22:55.381Z,32.00
2018-11-07T11:23:55.324Z,32.00
2018-11-07T11:24:55.268Z,32.00
2018-11-07T11:25:55.228Z,32.00
2018-11-07T11:26:55.152Z,32.00
2018-11-07T11:27:55.095Z,32.00
2018-11-07T11:28:55.036Z,32.00
2018-11-07T11:29:54.980Z,28.00
2018-11-07T11:30:54.925Z,32.00
2018-11-07T11:31:54.870Z,32.00
2018-11-07T11:32:54.813Z,32.00
2018-11-07T11:33:54.861Z,32.00
2018-11-07T11:34:54.770Z,32.00
2018-11-07T11:35:54.662Z,32.00
2018-11-07T11:36:54.588Z,28.00
2018-11-07T11:37:54.527Z,32.00
2018-11-07T11:38:54.472Z,28.00
2018-11-07T11:39:54.417Z,28.00
2018-11-07T11:40:54.363Z,28.00
2018-11-07T11:41:54.301Z,28.00
2018-11-07T11:42:54.242Z,24.00
2018-11-07T11:43:54.192Z,28.00
2018-11-07T11:44:54.128Z,28.00
2018-11-07T11:45:54.072Z,28.00
2018-11-07T11:46:54.014Z,28.00
2018-11-07T11:47:53.966Z,24.00
2018-11-07T11:48:53.906Z,24.00
2018-11-07T11:49:53.845Z,24.00
2018-11-07T11:50:53.791Z,28.00
2018-11-07T11:51:53.731Z,28.00
2018-11-07T11:52:53.674Z,28.00
2018-11-07T11:53:53.618Z,28.00
2018-11-07T11:54:53.562Z,28.00
2018-11-07T11:55:53.506Z,28.00
2018-11-07T11:56:53.449Z,28.00
2018-11-07T11:57:53.392Z,28.00
2018-11-07T11:58:53.458Z,28.00
2018-11-07T11:59:53.453Z,28.00
2018-11-07T12:00:53.219Z,24.00
2018-11-07T12:01:53.164Z,24.00
2018-11-07T12:02:53.107Z,24.00
2018-11-07T12:03:53.052Z,28.00
2018-11-07T12:04:52.996Z,28.00
2018-11-07T12:05:52.936Z,24.00
2018-11-07T12:06:52.882Z,24.00
2018-11-07T12:07:52.824Z,24.00
2018-11-07T12:08:52.822Z,24.00
2018-11-07T12:09:52.711Z,24.00
2018-11-07T12:10:52.653Z,24.00
2018-11-07T12:11:52.599Z,24.00
2018-11-07T12:12:52.551Z,24.00
2018-11-07T12:13:52.485Z,24.00
2018-11-07T12:14:52.428Z,24.00
2018-11-07T12:15:52.370Z,24.00
2018-11-07T12:16:52.316Z,24.00
2018-11-07T12:17:52.257Z,24.00
2018-11-07T12:18:52.199Z,24.00
2018-11-07T12:19:52.144Z,24.00
2018-11-07T12:20:52.087Z,24.00
2018-11-07T12:21:52.029Z,24.00
2018-11-07T12:22:51.972Z,24.00
2018-11-07T12:23:51.916Z,28.00
2018-11-07T12:24:51.859Z,28.00
2018-11-07T12:25:51.803Z,24.00
2018-11-07T12:26:51.772Z,24.00
2018-11-07T12:27:51.690Z,24.00
2018-11-07T12:28:51.638Z,24.00
2018-11-07T12:29:51.585Z,24.00
2018-11-07T12:30:51.524Z,24.00
2018-11-07T12:31:51.466Z,24.00
2018-11-07T12:32:51.405Z,24.00
2018-11-07T12:33:51.349Z,24.00
2018-11-07T12:34:51.294Z,24.00
2018-11-07T12:35:51.240Z,24.00
2018-11-07T12:36:51.179Z,24.00
2018-11-07T12:37:51.124Z,24.00
2018-11-07T12:38:51.067Z,28.00
2018-11-07T12:39:51.011Z,24.00
2018-11-07T12:40:50.953Z,28.00
2018-11-07T12:41:50.897Z,24.00
2018-11-07T12:42:50.897Z,24.00
2018-11-07T12:43:50.786Z,28.00
2018-11-07T12:44:50.726Z,24.00
2018-11-07T12:45:50.670Z,24.00
2018-11-07T12:46:50.617Z,24.00
2018-11-07T12:47:50.558Z,24.00
2018-11-07T12:48:50.504Z,24.00
2018-11-07T12:49:50.474Z,24.00
2018-11-07T12:50:50.391Z,24.00
2018-11-07T12:51:50.331Z,24.00
2018-11-07T12:52:50.277Z,24.00
2018-11-07T12:53:50.217Z,24.00
2018-11-07T12:54:50.161Z,20.00
2018-11-07T12:55:50.106Z,24.00
2018-11-07T12:56:50.053Z,20.00
2018-11-07T12:57:50.039Z,20.00
2018-11-07T12:58:49.945Z,20.00
2018-11-07T12:59:49.880Z,20.00
2018-11-07T13:00:49.822Z,20.00
2018-11-07T13:01:49.766Z,20.00
2018-11-07T13:02:49.725Z,24.00
2018-11-07T13:03:49.654Z,24.00
2018-11-07T13:04:49.597Z,24.00
2018-11-07T13:05:49.542Z,20.00
2018-11-07T13:06:49.484Z,20.00
2018-11-07T13:07:49.429Z,24.00